sensor_id;sensor_type;location;lat;lon;timestamp;temperature;humidity
46652;DHT22;32377;52.182;5.398;2024-01-07T00:01:31;2.10;99.90
46652;DHT22;32377;52.182;5.398;2024-01-07T00:03:57;2.00;99.90
46652;DHT22;32377;52.182;5.398;2024-01-07T00:06:22;2.00;1.00
46652;DHT22;32377;52.182;5.398;2024-01-07T00:08:48;2.00;1.00
46652;DHT22;32377;52.182;5.398;2024-01-07T00:11:14;2.00;1.00
46652;DHT22;32377;52.182;5.398;2024-01-07T00:13:39;2.00;1.00
46652;DHT22;32377;52.182;5.398;2024-01-07T00:16:05;2.00;1.00
46652;DHT22;32377;52.182;5.398;2024-01-07T00:18:31;2.00;1.00
46652;DHT22;32377;52.182;5.398;2024-01-07T00:20:56;2.00;19.10
46652;DHT22;32377;52.182;5.398;2024-01-07T00:23:22;2.10;46.50
46652;DHT22;32377;52.182;5.398;2024-01-07T00:25:48;2.00;63.90
46652;DHT22;32377;52.182;5.398;2024-01-07T00:28:14;1.90;75.30
46652;DHT22;32377;52.182;5.398;2024-01-07T00:30:39;1.90;95.70
46652;DHT22;32377;52.182;5.398;2024-01-07T00:33:05;1.90;99.90
46652;DHT22;32377;52.182;5.398;2024-01-07T00:35:31;1.90;99.90
46652;DHT22;32377;52.182;5.398;2024-01-07T00:37:56;1.90;99.90
46652;DHT22;32377;52.182;5.398;2024-01-07T00:40:25;1.90;99.90
46652;DHT22;32377;52.182;5.398;2024-01-07T00:42:52;1.90;99.90
46652;DHT22;32377;52.182;5.398;2024-01-07T00:45:20;1.90;99.90
46652;DHT22;32377;52.182;5.398;2024-01-07T00:47:47;1.90;99.90
46652;DHT22;32377;52.182;5.398;2024-01-07T00:50:12;1.90;99.90
46652;DHT22;32377;52.182;5.398;2024-01-07T00:52:38;1.90;99.90
46652;DHT22;32377;52.182;5.398;2024-01-07T00:55:04;1.90;99.90
46652;DHT22;32377;52.182;5.398;2024-01-07T00:57:31;1.90;99.90
46652;DHT22;32377;52.182;5.398;2024-01-07T00:59:57;2.00;99.90
46652;DHT22;32377;52.182;5.398;2024-01-07T01:02:23;2.00;99.90
46652;DHT22;32377;52.182;5.398;2024-01-07T01:04:48;1.90;99.90
46652;DHT22;32377;52.182;5.398;2024-01-07T01:07:14;2.00;99.90
46652;DHT22;32377;52.182;5.398;2024-01-07T01:09:40;1.90;99.90
46652;DHT22;32377;52.182;5.398;2024-01-07T01:12:06;1.90;99.90
46652;DHT22;32377;52.182;5.398;2024-01-07T01:14:31;1.90;99.90
46652;DHT22;32377;52.182;5.398;2024-01-07T01:16:57;1.90;99.90
46652;DHT22;32377;52.182;5.398;2024-01-07T01:19:24;1.90;99.90
46652;DHT22;32377;52.182;5.398;2024-01-07T01:21:49;1.90;99.90
46652;DHT22;32377;52.182;5.398;2024-01-07T01:24:15;2.00;99.90
46652;DHT22;32377;52.182;5.398;2024-01-07T01:26:41;2.00;99.90
46652;DHT22;32377;52.182;5.398;2024-01-07T01:29:06;2.00;99.90
46652;DHT22;32377;52.182;5.398;2024-01-07T01:31:32;2.00;99.90
46652;DHT22;32377;52.182;5.398;2024-01-07T01:33:57;2.10;99.90
46652;DHT22;32377;52.182;5.398;2024-01-07T01:36:23;2.00;99.90
46652;DHT22;32377;52.182;5.398;2024-01-07T01:38:49;2.00;99.90
46652;DHT22;32377;52.182;5.398;2024-01-07T01:41:15;1.90;99.90
46652;DHT22;32377;52.182;5.398;2024-01-07T01:43:41;1.90;99.90
46652;DHT22;32377;52.182;5.398;2024-01-07T01:46:07;1.90;99.90
46652;DHT22;32377;52.182;5.398;2024-01-07T01:48:33;1.90;99.90
46652;DHT22;32377;52.182;5.398;2024-01-07T01:51:00;1.90;99.90
46652;DHT22;32377;52.182;5.398;2024-01-07T01:53:26;1.90;99.90
46652;DHT22;32377;52.182;5.398;2024-01-07T01:55:52;2.00;99.90
46652;DHT22;32377;52.182;5.398;2024-01-07T01:58:20;1.90;99.90
46652;DHT22;32377;52.182;5.398;2024-01-07T02:00:47;1.90;99.90
46652;DHT22;32377;52.182;5.398;2024-01-07T02:03:12;1.90;99.90
46652;DHT22;32377;52.182;5.398;2024-01-07T02:05:38;1.90;99.90
46652;DHT22;32377;52.182;5.398;2024-01-07T02:08:04;1.90;99.90
46652;DHT22;32377;52.182;5.398;2024-01-07T02:10:30;1.90;99.90
46652;DHT22;32377;52.182;5.398;2024-01-07T02:13:00;1.90;99.90
46652;DHT22;32377;52.182;5.398;2024-01-07T02:15:26;1.80;99.90
46652;DHT22;32377;52.182;5.398;2024-01-07T02:17:51;1.80;99.90
46652;DHT22;32377;52.182;5.398;2024-01-07T02:20:17;1.80;99.90
46652;DHT22;32377;52.182;5.398;2024-01-07T02:22:42;1.70;99.90
46652;DHT22;32377;52.182;5.398;2024-01-07T02:25:08;1.80;99.90
46652;DHT22;32377;52.182;5.398;2024-01-07T02:27:34;1.80;99.90
46652;DHT22;32377;52.182;5.398;2024-01-07T02:29:59;1.80;86.00
46652;DHT22;32377;52.182;5.398;2024-01-07T02:32:25;1.80;92.60
46652;DHT22;32377;52.182;5.398;2024-01-07T02:34:51;1.80;28.50
46652;DHT22;32377;52.182;5.398;2024-01-07T02:37:16;1.80;21.20
46652;DHT22;32377;52.182;5.398;2024-01-07T02:39:42;1.80;23.80
46652;DHT22;32377;52.182;5.398;2024-01-07T02:42:08;1.80;30.00
46652;DHT22;32377;52.182;5.398;2024-01-07T02:44:34;1.90;1.00
46652;DHT22;32377;52.182;5.398;2024-01-07T02:46:59;1.80;1.00
46652;DHT22;32377;52.182;5.398;2024-01-07T02:49:25;1.80;1.00
46652;DHT22;32377;52.182;5.398;2024-01-07T02:51:50;1.80;1.00
46652;DHT22;32377;52.182;5.398;2024-01-07T02:54:16;1.80;1.00
46652;DHT22;32377;52.182;5.398;2024-01-07T02:56:42;1.90;1.00
46652;DHT22;32377;52.182;5.398;2024-01-07T02:59:07;1.90;1.00
46652;DHT22;32377;52.182;5.398;2024-01-07T03:01:33;1.90;1.00
46652;DHT22;32377;52.182;5.398;2024-01-07T03:04:09;1.90;1.00
46652;DHT22;32377;52.182;5.398;2024-01-07T03:06:35;1.80;1.00
46652;DHT22;32377;52.182;5.398;2024-01-07T03:09:00;1.80;1.00
46652;DHT22;32377;52.182;5.398;2024-01-07T03:11:26;1.80;1.00
46652;DHT22;32377;52.182;5.398;2024-01-07T03:13:52;1.70;1.00
46652;DHT22;32377;52.182;5.398;2024-01-07T03:16:25;1.70;1.00
46652;DHT22;32377;52.182;5.398;2024-01-07T03:18:51;1.70;1.00
46652;DHT22;32377;52.182;5.398;2024-01-07T03:21:21;1.80;1.00
46652;DHT22;32377;52.182;5.398;2024-01-07T03:23:47;1.80;1.00
46652;DHT22;32377;52.182;5.398;2024-01-07T03:26:14;1.80;1.00
46652;DHT22;32377;52.182;5.398;2024-01-07T03:28:39;1.80;1.00
46652;DHT22;32377;52.182;5.398;2024-01-07T03:31:11;1.80;1.00
46652;DHT22;32377;52.182;5.398;2024-01-07T03:33:40;1.80;1.00
46652;DHT22;32377;52.182;5.398;2024-01-07T03:36:08;1.80;1.00
46652;DHT22;32377;52.182;5.398;2024-01-07T03:38:35;1.80;1.00
46652;DHT22;32377;52.182;5.398;2024-01-07T03:41:00;1.80;1.00
46652;DHT22;32377;52.182;5.398;2024-01-07T03:43:26;1.70;1.00
46652;DHT22;32377;52.182;5.398;2024-01-07T03:45:51;1.70;1.00
46652;DHT22;32377;52.182;5.398;2024-01-07T03:48:17;1.80;1.00
46652;DHT22;32377;52.182;5.398;2024-01-07T03:50:43;1.70;1.00
46652;DHT22;32377;52.182;5.398;2024-01-07T03:53:09;1.80;1.00
46652;DHT22;32377;52.182;5.398;2024-01-07T03:55:34;1.80;2.50
46652;DHT22;32377;52.182;5.398;2024-01-07T03:58:00;1.70;1.00
46652;DHT22;32377;52.182;5.398;2024-01-07T04:00:25;1.80;11.00
46652;DHT22;32377;52.182;5.398;2024-01-07T04:02:51;1.70;2.20
46652;DHT22;32377;52.182;5.398;2024-01-07T04:05:16;1.70;1.00
46652;DHT22;32377;52.182;5.398;2024-01-07T04:07:42;1.70;1.00
46652;DHT22;32377;52.182;5.398;2024-01-07T04:10:08;1.70;21.10
46652;DHT22;32377;52.182;5.398;2024-01-07T04:12:33;1.60;1.00
46652;DHT22;32377;52.182;5.398;2024-01-07T04:14:59;1.60;1.00
46652;DHT22;32377;52.182;5.398;2024-01-07T04:17:24;1.60;1.00
46652;DHT22;32377;52.182;5.398;2024-01-07T04:19:51;1.60;1.00
46652;DHT22;32377;52.182;5.398;2024-01-07T04:22:17;1.50;1.00
46652;DHT22;32377;52.182;5.398;2024-01-07T04:24:42;1.60;1.00
46652;DHT22;32377;52.182;5.398;2024-01-07T04:27:08;1.50;99.90
46652;DHT22;32377;52.182;5.398;2024-01-07T04:29:33;1.60;99.90
46652;DHT22;32377;52.182;5.398;2024-01-07T04:31:59;1.60;99.90
46652;DHT22;32377;52.182;5.398;2024-01-07T04:34:25;1.60;99.90
46652;DHT22;32377;52.182;5.398;2024-01-07T04:36:50;1.60;99.90
46652;DHT22;32377;52.182;5.398;2024-01-07T04:39:16;1.60;99.90
46652;DHT22;32377;52.182;5.398;2024-01-07T04:41:41;1.60;99.90
46652;DHT22;32377;52.182;5.398;2024-01-07T04:44:07;1.50;99.90
46652;DHT22;32377;52.182;5.398;2024-01-07T04:46:39;1.60;99.90
46652;DHT22;32377;52.182;5.398;2024-01-07T04:49:06;1.60;99.90
46652;DHT22;32377;52.182;5.398;2024-01-07T04:51:32;1.60;96.10
46652;DHT22;32377;52.182;5.398;2024-01-07T04:53:58;1.50;23.30
46652;DHT22;32377;52.182;5.398;2024-01-07T04:56:23;1.60;7.50
46652;DHT22;32377;52.182;5.398;2024-01-07T04:58:49;1.60;1.00
46652;DHT22;32377;52.182;5.398;2024-01-07T05:01:15;1.60;1.00
46652;DHT22;32377;52.182;5.398;2024-01-07T05:03:40;1.60;1.00
46652;DHT22;32377;52.182;5.398;2024-01-07T05:06:08;1.60;1.00
46652;DHT22;32377;52.182;5.398;2024-01-07T05:08:35;1.60;1.00
46652;DHT22;32377;52.182;5.398;2024-01-07T05:11:01;1.70;1.00
46652;DHT22;32377;52.182;5.398;2024-01-07T05:13:26;1.70;1.00
46652;DHT22;32377;52.182;5.398;2024-01-07T05:15:52;1.70;1.00
46652;DHT22;32377;52.182;5.398;2024-01-07T05:18:23;1.80;1.00
46652;DHT22;32377;52.182;5.398;2024-01-07T05:20:52;1.80;1.00
46652;DHT22;32377;52.182;5.398;2024-01-07T05:23:18;1.80;1.00
46652;DHT22;32377;52.182;5.398;2024-01-07T05:25:43;1.70;1.00
46652;DHT22;32377;52.182;5.398;2024-01-07T05:28:10;1.80;1.00
46652;DHT22;32377;52.182;5.398;2024-01-07T05:30:35;1.70;1.00
46652;DHT22;32377;52.182;5.398;2024-01-07T05:33:01;1.80;1.00
46652;DHT22;32377;52.182;5.398;2024-01-07T05:35:27;1.80;1.00
46652;DHT22;32377;52.182;5.398;2024-01-07T05:37:52;1.80;1.00
46652;DHT22;32377;52.182;5.398;2024-01-07T05:40:18;1.80;1.00
46652;DHT22;32377;52.182;5.398;2024-01-07T05:42:44;1.70;99.90
46652;DHT22;32377;52.182;5.398;2024-01-07T05:45:09;1.70;99.90
46652;DHT22;32377;52.182;5.398;2024-01-07T05:47:35;1.70;99.90
46652;DHT22;32377;52.182;5.398;2024-01-07T05:50:01;1.80;99.90
46652;DHT22;32377;52.182;5.398;2024-01-07T05:52:28;1.80;99.90
46652;DHT22;32377;52.182;5.398;2024-01-07T05:54:53;1.70;99.90
46652;DHT22;32377;52.182;5.398;2024-01-07T05:57:19;1.70;99.90
46652;DHT22;32377;52.182;5.398;2024-01-07T05:59:45;1.60;99.90
46652;DHT22;32377;52.182;5.398;2024-01-07T06:02:11;1.70;99.90
46652;DHT22;32377;52.182;5.398;2024-01-07T06:04:38;1.70;99.90
46652;DHT22;32377;52.182;5.398;2024-01-07T06:07:03;1.70;99.90
46652;DHT22;32377;52.182;5.398;2024-01-07T06:09:29;1.70;99.90
46652;DHT22;32377;52.182;5.398;2024-01-07T06:11:55;1.70;99.90
46652;DHT22;32377;52.182;5.398;2024-01-07T06:14:21;1.70;99.90
46652;DHT22;32377;52.182;5.398;2024-01-07T06:16:47;1.70;99.90
46652;DHT22;32377;52.182;5.398;2024-01-07T06:19:13;1.70;99.90
46652;DHT22;32377;52.182;5.398;2024-01-07T06:21:40;1.70;99.90
46652;DHT22;32377;52.182;5.398;2024-01-07T06:24:07;1.70;99.90
46652;DHT22;32377;52.182;5.398;2024-01-07T06:26:33;1.70;99.90
46652;DHT22;32377;52.182;5.398;2024-01-07T06:28:59;1.70;99.90
46652;DHT22;32377;52.182;5.398;2024-01-07T06:31:25;1.70;99.90
46652;DHT22;32377;52.182;5.398;2024-01-07T06:33:50;1.70;99.90
46652;DHT22;32377;52.182;5.398;2024-01-07T06:36:16;1.70;99.90
46652;DHT22;32377;52.182;5.398;2024-01-07T06:38:42;1.60;99.90
46652;DHT22;32377;52.182;5.398;2024-01-07T06:41:09;1.60;99.90
46652;DHT22;32377;52.182;5.398;2024-01-07T06:43:35;1.60;99.90
46652;DHT22;32377;52.182;5.398;2024-01-07T06:46:00;1.60;99.90
46652;DHT22;32377;52.182;5.398;2024-01-07T06:48:26;1.50;99.90
46652;DHT22;32377;52.182;5.398;2024-01-07T06:50:54;1.60;99.90
46652;DHT22;32377;52.182;5.398;2024-01-07T06:53:20;1.50;99.90
46652;DHT22;32377;52.182;5.398;2024-01-07T06:55:47;1.50;99.90
46652;DHT22;32377;52.182;5.398;2024-01-07T06:58:12;1.50;99.90
46652;DHT22;32377;52.182;5.398;2024-01-07T07:00:38;1.50;99.90
46652;DHT22;32377;52.182;5.398;2024-01-07T07:03:04;1.50;99.90
46652;DHT22;32377;52.182;5.398;2024-01-07T07:05:30;1.50;99.90
46652;DHT22;32377;52.182;5.398;2024-01-07T07:07:56;1.50;99.90
46652;DHT22;32377;52.182;5.398;2024-01-07T07:10:22;1.60;99.90
46652;DHT22;32377;52.182;5.398;2024-01-07T07:12:47;1.60;99.90
46652;DHT22;32377;52.182;5.398;2024-01-07T07:15:13;1.50;99.90
46652;DHT22;32377;52.182;5.398;2024-01-07T07:17:39;1.50;99.90
46652;DHT22;32377;52.182;5.398;2024-01-07T07:20:06;1.50;99.90
46652;DHT22;32377;52.182;5.398;2024-01-07T07:22:31;1.50;99.90
46652;DHT22;32377;52.182;5.398;2024-01-07T07:24:57;1.50;99.90
46652;DHT22;32377;52.182;5.398;2024-01-07T07:27:22;1.40;99.90
46652;DHT22;32377;52.182;5.398;2024-01-07T07:29:49;1.40;99.90
46652;DHT22;32377;52.182;5.398;2024-01-07T07:32:14;1.40;99.90
46652;DHT22;32377;52.182;5.398;2024-01-07T07:34:40;1.40;99.90
46652;DHT22;32377;52.182;5.398;2024-01-07T07:37:05;1.50;99.90
46652;DHT22;32377;52.182;5.398;2024-01-07T07:39:31;1.50;99.90
46652;DHT22;32377;52.182;5.398;2024-01-07T07:41:56;1.40;99.90
46652;DHT22;32377;52.182;5.398;2024-01-07T07:44:22;1.40;99.90
46652;DHT22;32377;52.182;5.398;2024-01-07T07:46:47;1.30;99.90
46652;DHT22;32377;52.182;5.398;2024-01-07T07:49:13;1.30;99.90
46652;DHT22;32377;52.182;5.398;2024-01-07T07:51:39;1.30;99.90
46652;DHT22;32377;52.182;5.398;2024-01-07T07:54:05;1.40;99.90
46652;DHT22;32377;52.182;5.398;2024-01-07T07:56:30;1.40;99.90
46652;DHT22;32377;52.182;5.398;2024-01-07T07:58:56;1.40;99.90
46652;DHT22;32377;52.182;5.398;2024-01-07T08:01:21;1.40;99.90
46652;DHT22;32377;52.182;5.398;2024-01-07T08:03:47;1.40;99.90
46652;DHT22;32377;52.182;5.398;2024-01-07T08:06:12;1.40;99.90
46652;DHT22;32377;52.182;5.398;2024-01-07T08:08:38;1.30;99.70
46652;DHT22;32377;52.182;5.398;2024-01-07T08:11:04;1.30;99.90
46652;DHT22;32377;52.182;5.398;2024-01-07T08:13:35;1.30;99.90
46652;DHT22;32377;52.182;5.398;2024-01-07T08:16:01;1.30;99.90
46652;DHT22;32377;52.182;5.398;2024-01-07T08:18:26;1.40;99.90
46652;DHT22;32377;52.182;5.398;2024-01-07T08:20:52;1.30;89.80
46652;DHT22;32377;52.182;5.398;2024-01-07T08:23:17;1.40;99.90
46652;DHT22;32377;52.182;5.398;2024-01-07T08:25:43;1.40;99.40
46652;DHT22;32377;52.182;5.398;2024-01-07T08:28:10;1.30;71.50
46652;DHT22;32377;52.182;5.398;2024-01-07T08:30:36;1.30;56.30
46652;DHT22;32377;52.182;5.398;2024-01-07T08:33:01;1.30;53.20
46652;DHT22;32377;52.182;5.398;2024-01-07T08:35:27;1.30;67.40
46652;DHT22;32377;52.182;5.398;2024-01-07T08:37:53;1.40;78.80
46652;DHT22;32377;52.182;5.398;2024-01-07T08:40:18;1.40;54.10
46652;DHT22;32377;52.182;5.398;2024-01-07T08:42:44;1.30;70.20
46652;DHT22;32377;52.182;5.398;2024-01-07T08:45:10;1.30;9.40
46652;DHT22;32377;52.182;5.398;2024-01-07T08:47:36;1.30;3.50
46652;DHT22;32377;52.182;5.398;2024-01-07T08:50:02;1.20;1.00
46652;DHT22;32377;52.182;5.398;2024-01-07T08:52:28;1.30;1.00
46652;DHT22;32377;52.182;5.398;2024-01-07T08:54:54;1.30;1.00
46652;DHT22;32377;52.182;5.398;2024-01-07T08:57:20;1.30;1.00
46652;DHT22;32377;52.182;5.398;2024-01-07T08:59:46;1.40;1.00
46652;DHT22;32377;52.182;5.398;2024-01-07T09:02:11;1.40;1.00
46652;DHT22;32377;52.182;5.398;2024-01-07T09:04:37;1.40;1.00
46652;DHT22;32377;52.182;5.398;2024-01-07T09:07:03;1.40;1.00
46652;DHT22;32377;52.182;5.398;2024-01-07T09:09:29;1.40;1.00
46652;DHT22;32377;52.182;5.398;2024-01-07T09:11:54;1.40;26.00
46652;DHT22;32377;52.182;5.398;2024-01-07T09:14:22;1.40;20.20
46652;DHT22;32377;52.182;5.398;2024-01-07T09:16:47;1.40;7.60
46652;DHT22;32377;52.182;5.398;2024-01-07T09:19:13;1.40;1.00
46652;DHT22;32377;52.182;5.398;2024-01-07T09:21:38;1.40;1.00
46652;DHT22;32377;52.182;5.398;2024-01-07T09:24:04;1.40;1.00
46652;DHT22;32377;52.182;5.398;2024-01-07T09:26:30;1.40;1.00
46652;DHT22;32377;52.182;5.398;2024-01-07T09:28:56;1.40;1.00
46652;DHT22;32377;52.182;5.398;2024-01-07T09:31:22;1.50;1.00
46652;DHT22;32377;52.182;5.398;2024-01-07T09:33:47;1.50;1.00
46652;DHT22;32377;52.182;5.398;2024-01-07T09:36:13;1.50;1.00
46652;DHT22;32377;52.182;5.398;2024-01-07T09:38:40;1.40;1.00
46652;DHT22;32377;52.182;5.398;2024-01-07T09:41:05;1.40;1.00
46652;DHT22;32377;52.182;5.398;2024-01-07T09:43:31;1.40;1.00
46652;DHT22;32377;52.182;5.398;2024-01-07T09:45:57;1.30;1.00
46652;DHT22;32377;52.182;5.398;2024-01-07T09:48:24;1.20;1.00
46652;DHT22;32377;52.182;5.398;2024-01-07T09:50:51;1.20;1.00
46652;DHT22;32377;52.182;5.398;2024-01-07T09:53:20;1.20;1.00
46652;DHT22;32377;52.182;5.398;2024-01-07T09:55:52;1.30;1.00
46652;DHT22;32377;52.182;5.398;2024-01-07T09:58:22;1.30;1.00
46652;DHT22;32377;52.182;5.398;2024-01-07T10:00:49;1.30;1.00
46652;DHT22;32377;52.182;5.398;2024-01-07T10:03:14;1.30;1.00
46652;DHT22;32377;52.182;5.398;2024-01-07T10:05:40;1.30;1.00
46652;DHT22;32377;52.182;5.398;2024-01-07T10:08:06;1.20;1.00
46652;DHT22;32377;52.182;5.398;2024-01-07T10:10:35;1.30;1.00
46652;DHT22;32377;52.182;5.398;2024-01-07T10:13:01;1.30;1.00
46652;DHT22;32377;52.182;5.398;2024-01-07T10:15:26;1.30;1.00
46652;DHT22;32377;52.182;5.398;2024-01-07T10:17:55;1.30;1.00
46652;DHT22;32377;52.182;5.398;2024-01-07T10:20:27;1.40;1.00
46652;DHT22;32377;52.182;5.398;2024-01-07T10:22:52;1.50;1.00
46652;DHT22;32377;52.182;5.398;2024-01-07T10:25:18;1.60;1.00
46652;DHT22;32377;52.182;5.398;2024-01-07T10:27:44;1.50;99.90
46652;DHT22;32377;52.182;5.398;2024-01-07T10:30:10;1.50;99.90
46652;DHT22;32377;52.182;5.398;2024-01-07T10:32:37;1.60;99.90
46652;DHT22;32377;52.182;5.398;2024-01-07T10:35:03;1.70;99.90
46652;DHT22;32377;52.182;5.398;2024-01-07T10:37:30;1.80;99.90
46652;DHT22;32377;52.182;5.398;2024-01-07T10:39:59;1.70;99.90
46652;DHT22;32377;52.182;5.398;2024-01-07T10:42:32;1.70;99.90
46652;DHT22;32377;52.182;5.398;2024-01-07T10:44:59;1.70;99.90
46652;DHT22;32377;52.182;5.398;2024-01-07T10:47:29;1.70;99.90
46652;DHT22;32377;52.182;5.398;2024-01-07T10:49:57;1.60;99.90
46652;DHT22;32377;52.182;5.398;2024-01-07T10:52:23;1.60;99.90
46652;DHT22;32377;52.182;5.398;2024-01-07T10:54:49;1.60;99.90
46652;DHT22;32377;52.182;5.398;2024-01-07T10:57:34;1.50;99.90
46652;DHT22;32377;52.182;5.398;2024-01-07T11:00:02;1.70;99.90
46652;DHT22;32377;52.182;5.398;2024-01-07T11:02:42;1.70;99.90
46652;DHT22;32377;52.182;5.398;2024-01-07T11:05:15;1.70;99.90
46652;DHT22;32377;52.182;5.398;2024-01-07T11:07:46;1.70;99.90
46652;DHT22;32377;52.182;5.398;2024-01-07T11:10:22;1.80;99.90
46652;DHT22;32377;52.182;5.398;2024-01-07T11:12:56;1.80;99.90
46652;DHT22;32377;52.182;5.398;2024-01-07T11:18:31;1.80;99.90
46652;DHT22;32377;52.182;5.398;2024-01-07T11:21:02;1.90;99.90
46652;DHT22;32377;52.182;5.398;2024-01-07T11:23:35;2.00;99.90
46652;DHT22;32377;52.182;5.398;2024-01-07T11:26:05;2.10;99.90
46652;DHT22;32377;52.182;5.398;2024-01-07T11:28:47;2.20;99.90
46652;DHT22;32377;52.182;5.398;2024-01-07T11:31:20;2.50;99.90
46652;DHT22;32377;52.182;5.398;2024-01-07T11:33:48;2.50;99.90
46652;DHT22;32377;52.182;5.398;2024-01-07T11:36:15;2.50;99.90
46652;DHT22;32377;52.182;5.398;2024-01-07T11:38:45;2.50;99.90
46652;DHT22;32377;52.182;5.398;2024-01-07T11:41:14;2.40;99.90
46652;DHT22;32377;52.182;5.398;2024-01-07T11:43:55;2.30;99.90
46652;DHT22;32377;52.182;5.398;2024-01-07T11:46:22;2.10;99.90
46652;DHT22;32377;52.182;5.398;2024-01-07T11:48:48;2.10;99.90
46652;DHT22;32377;52.182;5.398;2024-01-07T11:51:14;1.90;99.90
46652;DHT22;32377;52.182;5.398;2024-01-07T11:53:40;1.80;99.90
46652;DHT22;32377;52.182;5.398;2024-01-07T11:56:08;1.70;99.90
46652;DHT22;32377;52.182;5.398;2024-01-07T11:58:34;1.70;99.90
46652;DHT22;32377;52.182;5.398;2024-01-07T12:00:59;1.70;99.90
46652;DHT22;32377;52.182;5.398;2024-01-07T12:03:25;1.80;99.90
46652;DHT22;32377;52.182;5.398;2024-01-07T12:05:51;1.70;99.90
46652;DHT22;32377;52.182;5.398;2024-01-07T12:08:17;1.70;99.90
46652;DHT22;32377;52.182;5.398;2024-01-07T12:10:43;1.80;99.90
46652;DHT22;32377;52.182;5.398;2024-01-07T12:13:08;1.70;99.90
46652;DHT22;32377;52.182;5.398;2024-01-07T12:15:37;1.80;99.90
46652;DHT22;32377;52.182;5.398;2024-01-07T12:18:02;1.70;99.90
46652;DHT22;32377;52.182;5.398;2024-01-07T12:20:30;1.90;99.90
46652;DHT22;32377;52.182;5.398;2024-01-07T12:22:56;1.80;99.90
46652;DHT22;32377;52.182;5.398;2024-01-07T12:25:23;1.90;99.90
46652;DHT22;32377;52.182;5.398;2024-01-07T12:27:52;1.90;99.90
46652;DHT22;32377;52.182;5.398;2024-01-07T12:30:19;2.00;99.90
46652;DHT22;32377;52.182;5.398;2024-01-07T12:32:45;2.00;99.90
46652;DHT22;32377;52.182;5.398;2024-01-07T12:35:11;2.10;99.90
46652;DHT22;32377;52.182;5.398;2024-01-07T12:37:37;2.20;99.90
46652;DHT22;32377;52.182;5.398;2024-01-07T12:40:04;2.30;99.90
46652;DHT22;32377;52.182;5.398;2024-01-07T12:42:30;2.40;99.90
46652;DHT22;32377;52.182;5.398;2024-01-07T12:44:55;2.40;99.90
46652;DHT22;32377;52.182;5.398;2024-01-07T12:47:21;2.40;99.90
46652;DHT22;32377;52.182;5.398;2024-01-07T12:49:47;2.50;99.90
46652;DHT22;32377;52.182;5.398;2024-01-07T12:52:12;2.50;99.90
46652;DHT22;32377;52.182;5.398;2024-01-07T12:54:38;2.40;99.90
46652;DHT22;32377;52.182;5.398;2024-01-07T12:57:04;2.50;99.90
46652;DHT22;32377;52.182;5.398;2024-01-07T12:59:30;2.50;99.90
46652;DHT22;32377;52.182;5.398;2024-01-07T13:01:56;2.50;99.90
46652;DHT22;32377;52.182;5.398;2024-01-07T13:04:22;2.40;99.90
46652;DHT22;32377;52.182;5.398;2024-01-07T13:06:48;2.30;99.90
46652;DHT22;32377;52.182;5.398;2024-01-07T13:09:13;2.20;99.90
46652;DHT22;32377;52.182;5.398;2024-01-07T13:11:39;2.10;99.90
46652;DHT22;32377;52.182;5.398;2024-01-07T13:14:04;2.10;99.90
46652;DHT22;32377;52.182;5.398;2024-01-07T13:16:31;2.10;99.90
46652;DHT22;32377;52.182;5.398;2024-01-07T13:18:57;2.20;99.90
46652;DHT22;32377;52.182;5.398;2024-01-07T13:21:23;2.20;99.90
46652;DHT22;32377;52.182;5.398;2024-01-07T13:23:49;2.20;99.90
46652;DHT22;32377;52.182;5.398;2024-01-07T13:26:16;2.20;99.90
46652;DHT22;32377;52.182;5.398;2024-01-07T13:28:41;2.20;99.90
46652;DHT22;32377;52.182;5.398;2024-01-07T13:31:08;2.20;99.90
46652;DHT22;32377;52.182;5.398;2024-01-07T13:33:33;2.20;99.90
46652;DHT22;32377;52.182;5.398;2024-01-07T13:35:59;2.10;99.90
46652;DHT22;32377;52.182;5.398;2024-01-07T13:38:25;2.20;99.90
46652;DHT22;32377;52.182;5.398;2024-01-07T13:40:51;2.20;99.90
46652;DHT22;32377;52.182;5.398;2024-01-07T13:43:17;2.20;99.90
46652;DHT22;32377;52.182;5.398;2024-01-07T13:45:42;2.10;99.90
46652;DHT22;32377;52.182;5.398;2024-01-07T13:48:08;2.00;99.90
46652;DHT22;32377;52.182;5.398;2024-01-07T13:50:34;2.00;99.90
46652;DHT22;32377;52.182;5.398;2024-01-07T13:52:59;1.90;99.90
46652;DHT22;32377;52.182;5.398;2024-01-07T13:55:25;1.80;99.90
46652;DHT22;32377;52.182;5.398;2024-01-07T13:57:51;1.80;99.90
46652;DHT22;32377;52.182;5.398;2024-01-07T14:00:16;1.80;99.90
46652;DHT22;32377;52.182;5.398;2024-01-07T14:02:44;1.80;99.90
46652;DHT22;32377;52.182;5.398;2024-01-07T14:05:14;1.80;99.90
46652;DHT22;32377;52.182;5.398;2024-01-07T14:07:40;1.90;99.90
46652;DHT22;32377;52.182;5.398;2024-01-07T14:10:07;1.90;99.90
46652;DHT22;32377;52.182;5.398;2024-01-07T14:12:34;1.90;99.90
46652;DHT22;32377;52.182;5.398;2024-01-07T14:15:00;1.80;99.90
46652;DHT22;32377;52.182;5.398;2024-01-07T14:17:25;1.80;99.90
46652;DHT22;32377;52.182;5.398;2024-01-07T14:19:51;1.80;99.90
46652;DHT22;32377;52.182;5.398;2024-01-07T14:22:19;1.80;99.90
46652;DHT22;32377;52.182;5.398;2024-01-07T14:24:46;1.80;99.90
46652;DHT22;32377;52.182;5.398;2024-01-07T14:27:11;1.80;99.90
46652;DHT22;32377;52.182;5.398;2024-01-07T14:29:37;1.80;99.90
46652;DHT22;32377;52.182;5.398;2024-01-07T14:32:04;1.80;99.90
46652;DHT22;32377;52.182;5.398;2024-01-07T14:34:30;1.80;99.90
46652;DHT22;32377;52.182;5.398;2024-01-07T14:36:56;1.80;99.90
46652;DHT22;32377;52.182;5.398;2024-01-07T14:39:21;1.80;99.90
46652;DHT22;32377;52.182;5.398;2024-01-07T14:41:47;1.80;99.90
46652;DHT22;32377;52.182;5.398;2024-01-07T14:44:13;1.80;99.90
46652;DHT22;32377;52.182;5.398;2024-01-07T14:46:38;1.80;99.90
46652;DHT22;32377;52.182;5.398;2024-01-07T14:49:04;1.70;99.90
46652;DHT22;32377;52.182;5.398;2024-01-07T14:51:30;1.70;99.90
46652;DHT22;32377;52.182;5.398;2024-01-07T14:53:58;1.70;99.90
46652;DHT22;32377;52.182;5.398;2024-01-07T14:56:25;1.60;99.90
46652;DHT22;32377;52.182;5.398;2024-01-07T14:58:51;1.60;99.90
46652;DHT22;32377;52.182;5.398;2024-01-07T15:01:17;1.60;99.90
46652;DHT22;32377;52.182;5.398;2024-01-07T15:03:44;1.50;99.90
46652;DHT22;32377;52.182;5.398;2024-01-07T15:06:09;1.50;99.90
46652;DHT22;32377;52.182;5.398;2024-01-07T15:08:36;1.40;99.90
46652;DHT22;32377;52.182;5.398;2024-01-07T15:11:01;1.40;99.90
46652;DHT22;32377;52.182;5.398;2024-01-07T15:13:27;1.40;99.90
46652;DHT22;32377;52.182;5.398;2024-01-07T15:15:53;1.30;99.90
46652;DHT22;32377;52.182;5.398;2024-01-07T15:18:18;1.30;99.90
46652;DHT22;32377;52.182;5.398;2024-01-07T15:20:44;1.20;99.90
46652;DHT22;32377;52.182;5.398;2024-01-07T15:23:10;1.10;99.90
46652;DHT22;32377;52.182;5.398;2024-01-07T15:25:36;1.10;99.90
46652;DHT22;32377;52.182;5.398;2024-01-07T15:28:01;1.10;99.90
46652;DHT22;32377;52.182;5.398;2024-01-07T15:30:27;1.10;99.90
46652;DHT22;32377;52.182;5.398;2024-01-07T15:32:53;1.00;99.90
46652;DHT22;32377;52.182;5.398;2024-01-07T15:35:19;1.00;99.90
46652;DHT22;32377;52.182;5.398;2024-01-07T15:37:44;0.90;99.90
46652;DHT22;32377;52.182;5.398;2024-01-07T15:40:10;0.90;99.90
46652;DHT22;32377;52.182;5.398;2024-01-07T15:42:37;0.80;99.90
46652;DHT22;32377;52.182;5.398;2024-01-07T15:45:02;0.80;99.90
46652;DHT22;32377;52.182;5.398;2024-01-07T15:47:34;0.70;99.90